sensor_id;sensor_type;location;lat;lon;timestamp;P1;durP1;ratioP1;P2;durP2;ratioP2
22236;SDS011;11287;48.122;11.536;2022-11-02T00:01:39;8.02;;;3.70;;
22236;SDS011;11287;48.122;11.536;2022-11-02T00:04:05;4.85;;;3.03;;
22236;SDS011;11287;48.122;11.536;2022-11-02T00:06:31;9.43;;;3.88;;
22236;SDS011;11287;48.122;11.536;2022-11-02T00:08:57;5.50;;;3.22;;
22236;SDS011;11287;48.122;11.536;2022-11-02T00:11:22;6.18;;;3.45;;
22236;SDS011;11287;48.122;11.536;2022-11-02T00:13:47;10.18;;;3.85;;
22236;SDS011;11287;48.122;11.536;2022-11-02T00:16:13;6.28;;;3.75;;
22236;SDS011;11287;48.122;11.536;2022-11-02T00:18:39;6.72;;;3.30;;
22236;SDS011;11287;48.122;11.536;2022-11-02T00:21:06;7.57;;;3.75;;
22236;SDS011;11287;48.122;11.536;2022-11-02T00:23:32;6.25;;;3.47;;
22236;SDS011;11287;48.122;11.536;2022-11-02T00:25:57;6.75;;;3.28;;
22236;SDS011;11287;48.122;11.536;2022-11-02T00:28:25;4.95;;;3.13;;
22236;SDS011;11287;48.122;11.536;2022-11-02T00:30:52;8.13;;;3.53;;
22236;SDS011;11287;48.122;11.536;2022-11-02T00:33:17;8.27;;;3.30;;
22236;SDS011;11287;48.122;11.536;2022-11-02T00:35:43;5.97;;;3.50;;
22236;SDS011;11287;48.122;11.536;2022-11-02T00:38:09;5.30;;;3.53;;
22236;SDS011;11287;48.122;11.536;2022-11-02T00:40:35;5.72;;;3.45;;
22236;SDS011;11287;48.122;11.536;2022-11-02T00:43:00;8.52;;;3.53;;
22236;SDS011;11287;48.122;11.536;2022-11-02T00:45:25;6.47;;;3.72;;
22236;SDS011;11287;48.122;11.536;2022-11-02T00:47:50;6.03;;;3.65;;
22236;SDS011;11287;48.122;11.536;2022-11-02T00:50:16;7.80;;;3.95;;
22236;SDS011;11287;48.122;11.536;2022-11-02T00:52:41;6.07;;;3.90;;
22236;SDS011;11287;48.122;11.536;2022-11-02T00:55:07;8.35;;;3.35;;
22236;SDS011;11287;48.122;11.536;2022-11-02T00:57:33;10.02;;;4.10;;
22236;SDS011;11287;48.122;11.536;2022-11-02T00:59:58;7.07;;;3.92;;
22236;SDS011;11287;48.122;11.536;2022-11-02T01:02:24;4.38;;;3.70;;
22236;SDS011;11287;48.122;11.536;2022-11-02T01:04:49;5.63;;;3.65;;
22236;SDS011;11287;48.122;11.536;2022-11-02T01:07:14;6.75;;;3.78;;
22236;SDS011;11287;48.122;11.536;2022-11-02T01:09:40;7.15;;;3.28;;
22236;SDS011;11287;48.122;11.536;2022-11-02T01:12:05;7.82;;;3.58;;
22236;SDS011;11287;48.122;11.536;2022-11-02T01:14:30;7.25;;;3.00;;
22236;SDS011;11287;48.122;11.536;2022-11-02T01:16:56;8.23;;;3.85;;
22236;SDS011;11287;48.122;11.536;2022-11-02T01:19:22;6.55;;;3.53;;
22236;SDS011;11287;48.122;11.536;2022-11-02T01:21:48;10.15;;;3.92;;
22236;SDS011;11287;48.122;11.536;2022-11-02T01:24:13;6.05;;;3.55;;
22236;SDS011;11287;48.122;11.536;2022-11-02T01:26:38;7.20;;;3.63;;
22236;SDS011;11287;48.122;11.536;2022-11-02T01:29:04;5.55;;;3.55;;
22236;SDS011;11287;48.122;11.536;2022-11-02T01:31:29;9.27;;;3.92;;
22236;SDS011;11287;48.122;11.536;2022-11-02T01:33:54;9.15;;;3.70;;
22236;SDS011;11287;48.122;11.536;2022-11-02T01:36:20;4.45;;;3.78;;
22236;SDS011;11287;48.122;11.536;2022-11-02T01:38:45;4.32;;;2.95;;
22236;SDS011;11287;48.122;11.536;2022-11-02T01:41:11;5.40;;;3.72;;
22236;SDS011;11287;48.122;11.536;2022-11-02T01:43:39;6.38;;;3.63;;
22236;SDS011;11287;48.122;11.536;2022-11-02T01:46:06;7.43;;;3.83;;
22236;SDS011;11287;48.122;11.536;2022-11-02T01:51:47;5.57;;;2.97;;
22236;SDS011;11287;48.122;11.536;2022-11-02T01:54:13;4.97;;;3.17;;
22236;SDS011;11287;48.122;11.536;2022-11-02T01:56:42;6.15;;;3.60;;
22236;SDS011;11287;48.122;11.536;2022-11-02T01:59:12;5.82;;;3.58;;
22236;SDS011;11287;48.122;11.536;2022-11-02T02:01:40;6.65;;;3.78;;
22236;SDS011;11287;48.122;11.536;2022-11-02T02:04:05;5.82;;;3.55;;
22236;SDS011;11287;48.122;11.536;2022-11-02T02:06:30;5.93;;;3.33;;
22236;SDS011;11287;48.122;11.536;2022-11-02T02:08:57;4.30;;;3.20;;
22236;SDS011;11287;48.122;11.536;2022-11-02T02:11:29;6.82;;;3.38;;
22236;SDS011;11287;48.122;11.536;2022-11-02T02:14:05;5.80;;;3.03;;
22236;SDS011;11287;48.122;11.536;2022-11-02T02:16:45;4.28;;;3.15;;
22236;SDS011;11287;48.122;11.536;2022-11-02T02:26:57;4.72;;;2.95;;
22236;SDS011;11287;48.122;11.536;2022-11-02T02:29:45;3.53;;;3.00;;
22236;SDS011;11287;48.122;11.536;2022-11-02T02:32:15;5.60;;;2.85;;
22236;SDS011;11287;48.122;11.536;2022-11-02T02:40:18;6.57;;;3.00;;
22236;SDS011;11287;48.122;11.536;2022-11-02T02:42:51;3.85;;;2.90;;
22236;SDS011;11287;48.122;11.536;2022-11-02T02:47:53;5.90;;;2.85;;
22236;SDS011;11287;48.122;11.536;2022-11-02T02:50:38;4.10;;;2.60;;
22236;SDS011;11287;48.122;11.536;2022-11-02T02:53:07;6.75;;;2.85;;
22236;SDS011;11287;48.122;11.536;2022-11-02T02:55:35;5.45;;;2.97;;
22236;SDS011;11287;48.122;11.536;2022-11-02T02:58:04;4.03;;;2.33;;
22236;SDS011;11287;48.122;11.536;2022-11-02T03:00:32;7.28;;;3.00;;
22236;SDS011;11287;48.122;11.536;2022-11-02T03:02:58;5.88;;;2.45;;
22236;SDS011;11287;48.122;11.536;2022-11-02T03:05:26;7.15;;;3.03;;
22236;SDS011;11287;48.122;11.536;2022-11-02T03:07:54;5.57;;;2.70;;
22236;SDS011;11287;48.122;11.536;2022-11-02T03:10:31;5.45;;;2.90;;
22236;SDS011;11287;48.122;11.536;2022-11-02T03:13:15;4.63;;;2.40;;
22236;SDS011;11287;48.122;11.536;2022-11-02T03:15:48;3.40;;;2.67;;
22236;SDS011;11287;48.122;11.536;2022-11-02T03:21:43;5.88;;;2.70;;
22236;SDS011;11287;48.122;11.536;2022-11-02T03:27:01;10.13;;;3.40;;
22236;SDS011;11287;48.122;11.536;2022-11-02T03:29:54;8.27;;;2.97;;
22236;SDS011;11287;48.122;11.536;2022-11-02T03:32:29;5.70;;;3.00;;
22236;SDS011;11287;48.122;11.536;2022-11-02T03:35:01;4.03;;;3.00;;
22236;SDS011;11287;48.122;11.536;2022-11-02T03:37:28;6.10;;;3.60;;
22236;SDS011;11287;48.122;11.536;2022-11-02T03:40:10;10.63;;;3.72;;
22236;SDS011;11287;48.122;11.536;2022-11-02T03:42:38;4.90;;;2.97;;
22236;SDS011;11287;48.122;11.536;2022-11-02T03:45:21;9.63;;;3.53;;
22236;SDS011;11287;48.122;11.536;2022-11-02T03:47:49;5.70;;;3.78;;
22236;SDS011;11287;48.122;11.536;2022-11-02T03:50:18;8.75;;;2.95;;
22236;SDS011;11287;48.122;11.536;2022-11-02T03:52:44;4.80;;;2.97;;
22236;SDS011;11287;48.122;11.536;2022-11-02T03:55:12;4.60;;;3.00;;
22236;SDS011;11287;48.122;11.536;2022-11-02T03:57:43;9.07;;;3.25;;
22236;SDS011;11287;48.122;11.536;2022-11-02T04:00:18;6.97;;;3.67;;
22236;SDS011;11287;48.122;11.536;2022-11-02T04:02:49;9.27;;;3.35;;
22236;SDS011;11287;48.122;11.536;2022-11-02T04:05:17;8.10;;;3.40;;
22236;SDS011;11287;48.122;11.536;2022-11-02T04:07:42;8.98;;;3.10;;
22236;SDS011;11287;48.122;11.536;2022-11-02T04:10:29;8.35;;;3.83;;
22236;SDS011;11287;48.122;11.536;2022-11-02T04:12:54;5.10;;;3.40;;
22236;SDS011;11287;48.122;11.536;2022-11-02T04:15:38;6.53;;;3.40;;
22236;SDS011;11287;48.122;11.536;2022-11-02T04:18:03;6.80;;;3.72;;
22236;SDS011;11287;48.122;11.536;2022-11-02T04:20:50;6.60;;;3.60;;
22236;SDS011;11287;48.122;11.536;2022-11-02T04:23:16;8.38;;;4.25;;
22236;SDS011;11287;48.122;11.536;2022-11-02T04:26:01;7.18;;;3.88;;
22236;SDS011;11287;48.122;11.536;2022-11-02T04:28:26;11.52;;;3.83;;
22236;SDS011;11287;48.122;11.536;2022-11-02T04:30:51;6.40;;;3.80;;
22236;SDS011;11287;48.122;11.536;2022-11-02T04:33:17;9.85;;;4.30;;
22236;SDS011;11287;48.122;11.536;2022-11-02T04:36:00;7.47;;;3.90;;
22236;SDS011;11287;48.122;11.536;2022-11-02T04:38:27;8.32;;;3.50;;
22236;SDS011;11287;48.122;11.536;2022-11-02T04:41:05;13.45;;;3.97;;
22236;SDS011;11287;48.122;11.536;2022-11-02T04:43:56;8.80;;;3.83;;
22236;SDS011;11287;48.122;11.536;2022-11-02T04:46:22;6.65;;;3.88;;
22236;SDS011;11287;48.122;11.536;2022-11-02T04:48:48;6.82;;;4.38;;
22236;SDS011;11287;48.122;11.536;2022-11-02T04:51:14;7.43;;;4.13;;
22236;SDS011;11287;48.122;11.536;2022-11-02T04:53:39;10.40;;;4.65;;
22236;SDS011;11287;48.122;11.536;2022-11-02T04:56:05;6.50;;;3.60;;
22236;SDS011;11287;48.122;11.536;2022-11-02T04:58:30;7.50;;;4.00;;
22236;SDS011;11287;48.122;11.536;2022-11-02T05:00:56;6.53;;;3.95;;
22236;SDS011;11287;48.122;11.536;2022-11-02T05:03:21;9.15;;;4.38;;
22236;SDS011;11287;48.122;11.536;2022-11-02T05:05:46;8.25;;;4.00;;
22236;SDS011;11287;48.122;11.536;2022-11-02T05:08:12;8.20;;;4.22;;
22236;SDS011;11287;48.122;11.536;2022-11-02T05:10:37;9.85;;;4.28;;
22236;SDS011;11287;48.122;11.536;2022-11-02T05:13:02;9.05;;;4.13;;
22236;SDS011;11287;48.122;11.536;2022-11-02T05:15:28;4.75;;;3.90;;
22236;SDS011;11287;48.122;11.536;2022-11-02T05:17:53;7.53;;;3.95;;
22236;SDS011;11287;48.122;11.536;2022-11-02T05:20:19;9.45;;;3.80;;
22236;SDS011;11287;48.122;11.536;2022-11-02T05:22:44;8.77;;;3.95;;
22236;SDS011;11287;48.122;11.536;2022-11-02T05:25:10;7.82;;;3.83;;
22236;SDS011;11287;48.122;11.536;2022-11-02T05:27:36;7.15;;;3.85;;
22236;SDS011;11287;48.122;11.536;2022-11-02T05:30:02;5.25;;;3.55;;
22236;SDS011;11287;48.122;11.536;2022-11-02T05:32:28;6.00;;;3.35;;
22236;SDS011;11287;48.122;11.536;2022-11-02T05:34:53;8.88;;;3.55;;
22236;SDS011;11287;48.122;11.536;2022-11-02T05:37:18;6.18;;;3.03;;
22236;SDS011;11287;48.122;11.536;2022-11-02T05:39:44;6.85;;;3.33;;
22236;SDS011;11287;48.122;11.536;2022-11-02T05:42:09;7.90;;;4.05;;
22236;SDS011;11287;48.122;11.536;2022-11-02T05:44:34;5.97;;;3.63;;
22236;SDS011;11287;48.122;11.536;2022-11-02T05:47:00;8.30;;;3.90;;
22236;SDS011;11287;48.122;11.536;2022-11-02T05:49:25;5.55;;;3.10;;
22236;SDS011;11287;48.122;11.536;2022-11-02T05:51:51;8.60;;;3.65;;
22236;SDS011;11287;48.122;11.536;2022-11-02T05:54:16;5.55;;;3.55;;
22236;SDS011;11287;48.122;11.536;2022-11-02T05:56:41;8.25;;;4.05;;
22236;SDS011;11287;48.122;11.536;2022-11-02T05:59:07;11.65;;;3.75;;
22236;SDS011;11287;48.122;11.536;2022-11-02T06:01:32;10.45;;;3.72;;
22236;SDS011;11287;48.122;11.536;2022-11-02T06:03:57;5.90;;;3.70;;
22236;SDS011;11287;48.122;11.536;2022-11-02T06:06:23;7.72;;;3.90;;
22236;SDS011;11287;48.122;11.536;2022-11-02T06:08:48;8.43;;;3.65;;
22236;SDS011;11287;48.122;11.536;2022-11-02T06:11:14;7.05;;;3.80;;
22236;SDS011;11287;48.122;11.536;2022-11-02T06:13:39;8.18;;;3.38;;
22236;SDS011;11287;48.122;11.536;2022-11-02T06:16:06;7.82;;;3.30;;
22236;SDS011;11287;48.122;11.536;2022-11-02T06:18:35;7.20;;;3.70;;
22236;SDS011;11287;48.122;11.536;2022-11-02T06:21:01;5.63;;;3.88;;
22236;SDS011;11287;48.122;11.536;2022-11-02T06:23:26;6.15;;;3.85;;
22236;SDS011;11287;48.122;11.536;2022-11-02T06:25:53;8.30;;;3.72;;
22236;SDS011;11287;48.122;11.536;2022-11-02T06:28:19;9.02;;;4.28;;
22236;SDS011;11287;48.122;11.536;2022-11-02T06:30:44;5.13;;;3.78;;
22236;SDS011;11287;48.122;11.536;2022-11-02T06:33:10;6.38;;;3.63;;
22236;SDS011;11287;48.122;11.536;2022-11-02T06:35:35;7.13;;;3.90;;
22236;SDS011;11287;48.122;11.536;2022-11-02T06:38:00;9.70;;;3.70;;
22236;SDS011;11287;48.122;11.536;2022-11-02T06:40:26;9.20;;;3.80;;
22236;SDS011;11287;48.122;11.536;2022-11-02T06:42:55;7.95;;;3.72;;
22236;SDS011;11287;48.122;11.536;2022-11-02T06:45:21;9.50;;;3.70;;
22236;SDS011;11287;48.122;11.536;2022-11-02T06:47:47;14.68;;;3.70;;
22236;SDS011;11287;48.122;11.536;2022-11-02T06:50:13;6.38;;;3.45;;
22236;SDS011;11287;48.122;11.536;2022-11-02T06:52:42;8.15;;;3.55;;
22236;SDS011;11287;48.122;11.536;2022-11-02T06:55:08;6.45;;;3.50;;
22236;SDS011;11287;48.122;11.536;2022-11-02T06:57:35;6.38;;;3.75;;
22236;SDS011;11287;48.122;11.536;2022-11-02T07:00:01;8.93;;;3.35;;
22236;SDS011;11287;48.122;11.536;2022-11-02T07:02:28;6.68;;;3.35;;
22236;SDS011;11287;48.122;11.536;2022-11-02T07:04:54;8.70;;;3.75;;
22236;SDS011;11287;48.122;11.536;2022-11-02T07:07:20;5.75;;;3.50;;
22236;SDS011;11287;48.122;11.536;2022-11-02T07:09:45;6.68;;;3.42;;
22236;SDS011;11287;48.122;11.536;2022-11-02T07:12:10;10.35;;;3.55;;
22236;SDS011;11287;48.122;11.536;2022-11-02T07:14:35;8.05;;;3.67;;
22236;SDS011;11287;48.122;11.536;2022-11-02T07:17:01;8.27;;;3.50;;
22236;SDS011;11287;48.122;11.536;2022-11-02T07:19:26;7.28;;;3.88;;
22236;SDS011;11287;48.122;11.536;2022-11-02T07:21:51;8.15;;;3.97;;
22236;SDS011;11287;48.122;11.536;2022-11-02T07:24:17;10.95;;;4.93;;
22236;SDS011;11287;48.122;11.536;2022-11-02T07:26:42;8.93;;;4.18;;
22236;SDS011;11287;48.122;11.536;2022-11-02T07:29:08;11.18;;;4.40;;
22236;SDS011;11287;48.122;11.536;2022-11-02T07:31:33;13.43;;;4.60;;
22236;SDS011;11287;48.122;11.536;2022-11-02T07:33:59;9.82;;;4.35;;
22236;SDS011;11287;48.122;11.536;2022-11-02T07:36:24;7.53;;;4.13;;
22236;SDS011;11287;48.122;11.536;2022-11-02T07:38:49;8.63;;;4.40;;
22236;SDS011;11287;48.122;11.536;2022-11-02T07:41:15;9.70;;;4.80;;
22236;SDS011;11287;48.122;11.536;2022-11-02T07:43:40;6.05;;;3.55;;
22236;SDS011;11287;48.122;11.536;2022-11-02T07:46:05;9.38;;;3.67;;
22236;SDS011;11287;48.122;11.536;2022-11-02T07:48:31;8.80;;;3.58;;
22236;SDS011;11287;48.122;11.536;2022-11-02T07:50:57;5.78;;;3.03;;
22236;SDS011;11287;48.122;11.536;2022-11-02T07:53:23;4.00;;;2.70;;
22236;SDS011;11287;48.122;11.536;2022-11-02T07:55:49;5.65;;;3.00;;
22236;SDS011;11287;48.122;11.536;2022-11-02T07:58:14;5.43;;;2.63;;
22236;SDS011;11287;48.122;11.536;2022-11-02T08:00:40;7.18;;;2.88;;
22236;SDS011;11287;48.122;11.536;2022-11-02T08:03:06;8.13;;;2.42;;
22236;SDS011;11287;48.122;11.536;2022-11-02T08:05:33;5.78;;;2.53;;
22236;SDS011;11287;48.122;11.536;2022-11-02T08:07:59;8.75;;;2.53;;
22236;SDS011;11287;48.122;11.536;2022-11-02T08:10:26;8.18;;;2.30;;
22236;SDS011;11287;48.122;11.536;2022-11-02T08:12:53;4.70;;;2.30;;
22236;SDS011;11287;48.122;11.536;2022-11-02T08:15:18;9.48;;;2.40;;
22236;SDS011;11287;48.122;11.536;2022-11-02T08:17:44;4.35;;;2.33;;
22236;SDS011;11287;48.122;11.536;2022-11-02T08:20:15;3.85;;;1.90;;
22236;SDS011;11287;48.122;11.536;2022-11-02T08:22:40;6.72;;;2.58;;
22236;SDS011;11287;48.122;11.536;2022-11-02T08:25:06;6.97;;;1.83;;
22236;SDS011;11287;48.122;11.536;2022-11-02T08:27:32;4.18;;;2.03;;
22236;SDS011;11287;48.122;11.536;2022-11-02T08:29:58;9.95;;;2.50;;
22236;SDS011;11287;48.122;11.536;2022-11-02T08:32:23;6.50;;;1.92;;
22236;SDS011;11287;48.122;11.536;2022-11-02T08:34:49;8.35;;;2.25;;
22236;SDS011;11287;48.122;11.536;2022-11-02T08:37:14;6.68;;;1.80;;
22236;SDS011;11287;48.122;11.536;2022-11-02T08:39:39;7.90;;;2.25;;
22236;SDS011;11287;48.122;11.536;2022-11-02T08:42:05;9.30;;;2.03;;
22236;SDS011;11287;48.122;11.536;2022-11-02T08:44:30;3.50;;;1.65;;
22236;SDS011;11287;48.122;11.536;2022-11-02T08:46:56;6.32;;;1.90;;
22236;SDS011;11287;48.122;11.536;2022-11-02T08:49:21;7.30;;;2.00;;
22236;SDS011;11287;48.122;11.536;2022-11-02T08:51:46;8.95;;;1.95;;
22236;SDS011;11287;48.122;11.536;2022-11-02T08:54:12;4.07;;;1.30;;
22236;SDS011;11287;48.122;11.536;2022-11-02T08:56:37;3.95;;;1.40;;
22236;SDS011;11287;48.122;11.536;2022-11-02T08:59:02;6.88;;;1.95;;
22236;SDS011;11287;48.122;11.536;2022-11-02T09:01:28;7.30;;;1.60;;
22236;SDS011;11287;48.122;11.536;2022-11-02T09:03:53;4.35;;;1.75;;
22236;SDS011;11287;48.122;11.536;2022-11-02T09:06:18;5.32;;;2.03;;
22236;SDS011;11287;48.122;11.536;2022-11-02T09:08:44;3.28;;;1.48;;
22236;SDS011;11287;48.122;11.536;2022-11-02T09:11:09;7.50;;;1.40;;
22236;SDS011;11287;48.122;11.536;2022-11-02T09:13:36;3.92;;;1.10;;
22236;SDS011;11287;48.122;11.536;2022-11-02T09:16:01;5.00;;;1.33;;
22236;SDS011;11287;48.122;11.536;2022-11-02T09:18:27;6.00;;;1.60;;
22236;SDS011;11287;48.122;11.536;2022-11-02T09:20:52;3.90;;;1.00;;
22236;SDS011;11287;48.122;11.536;2022-11-02T09:23:18;3.50;;;1.00;;
22236;SDS011;11287;48.122;11.536;2022-11-02T09:25:44;3.05;;;1.00;;
22236;SDS011;11287;48.122;11.536;2022-11-02T09:28:10;8.25;;;1.55;;
22236;SDS011;11287;48.122;11.536;2022-11-02T09:30:36;4.65;;;1.13;;
22236;SDS011;11287;48.122;11.536;2022-11-02T09:33:03;4.90;;;1.42;;
22236;SDS011;11287;48.122;11.536;2022-11-02T09:35:30;4.43;;;1.20;;
22236;SDS011;11287;48.122;11.536;2022-11-02T09:38:00;6.07;;;1.23;;
22236;SDS011;11287;48.122;11.536;2022-11-02T09:40:30;4.57;;;1.02;;
22236;SDS011;11287;48.122;11.536;2022-11-02T09:45:33;5.43;;;1.25;;
22236;SDS011;11287;48.122;11.536;2022-11-02T09:48:21;7.03;;;1.05;;
22236;SDS011;11287;48.122;11.536;2022-11-02T09:50:54;4.18;;;1.50;;
22236;SDS011;11287;48.122;11.536;2022-11-02T09:53:26;5.40;;;1.42;;
22236;SDS011;11287;48.122;11.536;2022-11-02T09:56:13;6.30;;;1.20;;
22236;SDS011;11287;48.122;11.536;2022-11-02T09:58:40;4.82;;;1.05;;
22236;SDS011;11287;48.122;11.536;2022-11-02T10:04:01;9.88;;;1.40;;
22236;SDS011;11287;48.122;11.536;2022-11-02T10:06:37;5.18;;;1.35;;
22236;SDS011;11287;48.122;11.536;2022-11-02T10:09:17;4.32;;;1.30;;
22236;SDS011;11287;48.122;11.536;2022-11-02T10:14:34;4.60;;;1.20;;
22236;SDS011;11287;48.122;11.536;2022-11-02T10:17:16;7.03;;;1.50;;
22236;SDS011;11287;48.122;11.536;2022-11-02T10:19:47;4.45;;;1.20;;
22236;SDS011;11287;48.122;11.536;2022-11-02T10:22:15;5.05;;;1.30;;
22236;SDS011;11287;48.122;11.536;2022-11-02T10:24:42;7.28;;;1.40;;
22236;SDS011;11287;48.122;11.536;2022-11-02T10:27:28;7.80;;;1.30;;
22236;SDS011;11287;48.122;11.536;2022-11-02T10:32:36;6.38;;;1.70;;
22236;SDS011;11287;48.122;11.536;2022-11-02T10:35:03;5.38;;;1.27;;
22236;SDS011;11287;48.122;11.536;2022-11-02T10:42:50;7.93;;;0.90;;
22236;SDS011;11287;48.122;11.536;2022-11-02T10:48:05;6.32;;;1.38;;
22236;SDS011;11287;48.122;11.536;2022-11-02T10:50:38;7.03;;;1.30;;
22236;SDS011;11287;48.122;11.536;2022-11-02T10:53:18;6.60;;;1.08;;
22236;SDS011;11287;48.122;11.536;2022-11-02T11:01:04;2.63;;;1.00;;
22236;SDS011;11287;48.122;11.536;2022-11-02T11:03:37;4.68;;;1.17;;
22236;SDS011;11287;48.122;11.536;2022-11-02T11:06:23;4.22;;;1.10;;
22236;SDS011;11287;48.122;11.536;2022-11-02T11:08:57;4.20;;;1.23;;
22236;SDS011;11287;48.122;11.536;2022-11-02T11:11:34;8.07;;;1.30;;
22236;SDS011;11287;48.122;11.536;2022-11-02T11:14:22;4.60;;;1.17;;
22236;SDS011;11287;48.122;11.536;2022-11-02T11:16:48;6.95;;;1.55;;
22236;SDS011;11287;48.122;11.536;2022-11-02T11:19:20;6.88;;;1.60;;
22236;SDS011;11287;48.122;11.536;2022-11-02T11:24:49;4.25;;;1.08;;
22236;SDS011;11287;48.122;11.536;2022-11-02T11:27:16;6.80;;;1.38;;
22236;SDS011;11287;48.122;11.536;2022-11-02T11:29:50;4.07;;;1.08;;
22236;SDS011;11287;48.122;11.536;2022-11-02T11:32:18;3.00;;;1.10;;
22236;SDS011;11287;48.122;11.536;2022-11-02T11:34:51;4.43;;;1.17;;
22236;SDS011;11287;48.122;11.536;2022-11-02T11:37:19;2.03;;;0.93;;
22236;SDS011;11287;48.122;11.536;2022-11-02T11:39:44;4.82;;;0.95;;
22236;SDS011;11287;48.122;11.536;2022-11-02T11:42:17;7.60;;;1.10;;
22236;SDS011;11287;48.122;11.536;2022-11-02T11:44:55;3.55;;;1.00;;
22236;SDS011;11287;48.122;11.536;2022-11-02T11:47:34;4.28;;;1.05;;
22236;SDS011;11287;48.122;11.536;2022-11-02T11:50:02;6.75;;;1.40;;
22236;SDS011;11287;48.122;11.536;2022-11-02T11:52:30;4.60;;;0.85;;
22236;SDS011;11287;48.122;11.536;2022-11-02T11:55:00;8.93;;;1.23;;
22236;SDS011;11287;48.122;11.536;2022-11-02T11:57:44;3.65;;;1.08;;
22236;SDS011;11287;48.122;11.536;2022-11-02T12:00:31;3.03;;;0.75;;
22236;SDS011;11287;48.122;11.536;2022-11-02T12:03:16;3.75;;;1.10;;
22236;SDS011;11287;48.122;11.536;2022-11-02T12:08:42;3.00;;;0.80;;
22236;SDS011;11287;48.122;11.536;2022-11-02T12:11:43;5.80;;;1.05;;
22236;SDS011;11287;48.122;11.536;2022-11-02T12:22:28;5.70;;;0.95;;
22236;SDS011;11287;48.122;11.536;2022-11-02T12:33:16;1.90;;;1.10;;
22236;SDS011;11287;48.122;11.536;2022-11-02T12:35:56;3.10;;;0.80;;
22236;SDS011;11287;48.122;11.536;2022-11-02T12:39:12;6.00;;;1.10;;
22236;SDS011;11287;48.122;11.536;2022-11-02T12:47:28;2.20;;;0.70;;
22236;SDS011;11287;48.122;11.536;2022-11-02T12:50:18;4.20;;;1.10;;
22236;SDS011;11287;48.122;11.536;2022-11-02T12:55:58;6.50;;;1.17;;
22236;SDS011;11287;48.122;11.536;2022-11-02T12:58:29;3.95;;;1.20;;
22236;SDS011;11287;48.122;11.536;2022-11-02T13:01:01;4.18;;;0.80;;
22236;SDS011;11287;48.122;11.536;2022-11-02T13:06:48;8.07;;;1.25;;
22236;SDS011;11287;48.122;11.536;2022-11-02T13:09:32;5.68;;;1.10;;
22236;SDS011;11287;48.122;11.536;2022-11-02T13:14:41;5.25;;;0.82;;
22236;SDS011;11287;48.122;11.536;2022-11-02T13:17:11;4.82;;;1.00;;
22236;SDS011;11287;48.122;11.536;2022-11-02T13:19:42;7.57;;;1.08;;
22236;SDS011;11287;48.122;11.536;2022-11-02T13:22:11;5.60;;;0.90;;
22236;SDS011;11287;48.122;11.536;2022-11-02T13:24:48;4.07;;;1.08;;
22236;SDS011;11287;48.122;11.536;2022-11-02T13:27:22;4.25;;;0.90;;
22236;SDS011;11287;48.122;11.536;2022-11-02T13:29:50;5.38;;;0.70;;
22236;SDS011;11287;48.122;11.536;2022-11-02T13:32:20;3.83;;;0.90;;
22236;SDS011;11287;48.122;11.536;2022-11-02T13:34:47;2.60;;;0.68;;
22236;SDS011;11287;48.122;11.536;2022-11-02T13:37:26;1.20;;;0.50;;
22236;SDS011;11287;48.122;11.536;2022-11-02T13:39:55;3.97;;;0.55;;
22236;SDS011;11287;48.122;11.536;2022-11-02T13:42:26;3.05;;;0.73;;
22236;SDS011;11287;48.122;11.536;2022-11-02T13:50:56;1.85;;;0.70;;
22236;SDS011;11287;48.122;11.536;2022-11-02T13:53:25;4.80;;;0.70;;
22236;SDS011;11287;48.122;11.536;2022-11-02T13:55:54;1.75;;;0.55;;
22236;SDS011;11287;48.122;11.536;2022-11-02T13:58:24;2.85;;;0.55;;
22236;SDS011;11287;48.122;11.536;2022-11-02T14:01:05;3.67;;;0.88;;
22236;SDS011;11287;48.122;11.536;2022-11-02T14:03:40;2.33;;;0.82;;
22236;SDS011;11287;48.122;11.536;2022-11-02T14:06:19;3.65;;;0.90;;
22236;SDS011;11287;48.122;11.536;2022-11-02T14:08:57;4.95;;;1.20;;
22236;SDS011;11287;48.122;11.536;2022-11-02T14:11:35;1.40;;;0.77;;
22236;SDS011;11287;48.122;11.536;2022-11-02T14:14:23;3.92;;;0.77;;
22236;SDS011;11287;48.122;11.536;2022-11-02T14:21:43;3.55;;;0.93;;
22236;SDS011;11287;48.122;11.536;2022-11-02T14:25:03;2.67;;;1.10;;
22236;SDS011;11287;48.122;11.536;2022-11-02T14:26:59;4.03;;;0.95;;
22236;SDS011;11287;48.122;11.536;2022-11-02T14:41:15;5.05;;;0.80;;
22236;SDS011;11287;48.122;11.536;2022-11-02T14:49:13;2.33;;;0.98;;
22236;SDS011;11287;48.122;11.536;2022-11-02T14:51:41;9.05;;;1.20;;
22236;SDS011;11287;48.122;11.536;2022-11-02T14:54:13;4.28;;;1.02;;
22236;SDS011;11287;48.122;11.536;2022-11-02T14:59:19;6.20;;;1.08;;
22236;SDS011;11287;48.122;11.536;2022-11-02T15:01:52;3.85;;;1.23;;
22236;SDS011;11287;48.122;11.536;2022-11-02T15:04:20;5.20;;;0.90;;
22236;SDS011;11287;48.122;11.536;2022-11-02T15:06:50;3.45;;;0.98;;
22236;SDS011;11287;48.122;11.536;2022-11-02T15:09:49;8.38;;;1.05;;
22236;SDS011;11287;48.122;11.536;2022-11-02T15:12:26;3.53;;;0.75;;
22236;SDS011;11287;48.122;11.536;2022-11-02T15:18:12;5.35;;;1.00;;
22236;SDS011;11287;48.122;11.536;2022-11-02T15:23:57;4.20;;;1.00;;
22236;SDS011;11287;48.122;11.536;2022-11-02T15:29:18;5.50;;;1.02;;
22236;SDS011;11287;48.122;11.536;2022-11-02T15:31:52;2.30;;;1.00;;
22236;SDS011;11287;48.122;11.536;2022-11-02T15:34:19;6.05;;;0.93;;
22236;SDS011;11287;48.122;11.536;2022-11-02T15:36:45;4.03;;;1.13;;
22236;SDS011;11287;48.122;11.536;2022-11-02T15:39:11;3.00;;;0.90;;
22236;SDS011;11287;48.122;11.536;2022-11-02T15:58:20;3.35;;;1.05;;
22236;SDS011;11287;48.122;11.536;2022-11-02T16:03:45;6.10;;;1.40;;
22236;SDS011;11287;48.122;11.536;2022-11-02T16:06:12;8.77;;;1.48;;
22236;SDS011;11287;48.122;11.536;2022-11-02T16:08:38;10.52;;;2.20;;
22236;SDS011;11287;48.122;11.536;2022-11-02T16:11:04;10.07;;;2.00;;
22236;SDS011;11287;48.122;11.536;2022-11-02T16:13:34;8.23;;;2.15;;
22236;SDS011;11287;48.122;11.536;2022-11-02T16:16:06;7.13;;;1.92;;
22236;SDS011;11287;48.122;11.536;2022-11-02T16:18:38;7.03;;;2.20;;
22236;SDS011;11287;48.122;11.536;2022-11-02T16:21:05;7.93;;;1.90;;
22236;SDS011;11287;48.122;11.536;2022-11-02T16:23:32;6.57;;;1.83;;
22236;SDS011;11287;48.122;11.536;2022-11-02T16:25:59;5.60;;;2.10;;
22236;SDS011;11287;48.122;11.536;2022-11-02T16:28:26;5.40;;;1.85;;
22236;SDS011;11287;48.122;11.536;2022-11-02T16:36:08;13.73;;;1.98;;
22236;SDS011;11287;48.122;11.536;2022-11-02T16:38:45;4.63;;;2.20;;
22236;SDS011;11287;48.122;11.536;2022-11-02T16:41:12;6.15;;;2.40;;
22236;SDS011;11287;48.122;11.536;2022-11-02T16:43:40;8.93;;;2.55;;
22236;SDS011;11287;48.122;11.536;2022-11-02T16:46:06;8.70;;;2.28;;
22236;SDS011;11287;48.122;11.536;2022-11-02T16:48:32;5.85;;;1.85;;
22236;SDS011;11287;48.122;11.536;2022-11-02T16:51:05;8.13;;;1.75;;
22236;SDS011;11287;48.122;11.536;2022-11-02T16:53:36;9.85;;;2.22;;
22236;SDS011;11287;48.122;11.536;2022-11-02T16:58:45;8.75;;;2.20;;
22236;SDS011;11287;48.122;11.536;2022-11-02T17:01:19;10.50;;;1.67;;
22236;SDS011;11287;48.122;11.536;2022-11-02T17:03:46;9.52;;;2.13;;
22236;SDS011;11287;48.122;11.536;2022-11-02T17:06:12;6.82;;;2.08;;
22236;SDS011;11287;48.122;11.536;2022-11-02T17:08:38;5.45;;;2.10;;
22236;SDS011;11287;48.122;11.536;2022-11-02T17:11:04;7.53;;;2.78;;
22236;SDS011;11287;48.122;11.536;2022-11-02T17:13:31;6.22;;;3.00;;
22236;SDS011;11287;48.122;11.536;2022-11-02T17:16:07;11.30;;;5.15;;
22236;SDS011;11287;48.122;11.536;2022-11-02T17:18:33;12.73;;;3.90;;
22236;SDS011;11287;48.122;11.536;2022-11-02T17:23:40;20.55;;;10.20;;